Time;durP1;ratioP1;P1;durP2;ratioP2;P2;SDS_P1;SDS_P2;PMS_P1;PMS_P2;Temp;Humidity;BMP_temperature;BMP_pressure;BME280_temperature;BME280_humidity;BME280_pressure;Samples;Min_cycle;Max_cycle;Signal;HPM_P1;HPM_P2
2022/05/02 00:00:02;;;;;;;4.82;3.83;;;11.70;99.90;;;;;;5033152;28;20048;-69
2022/05/02 00:03:09;;;;;;;7.53;4.47;;;11.70;99.90;;;;;;5033108;28;20052;-70
2022/05/02 00:06:14;;;;;;;4.47;3.67;;;11.60;99.90;;;;;;5032694;28;20499;-70
2022/05/02 00:09:17;;;;;;;7.90;4.20;;;11.60;99.90;;;;;;5032913;28;20052;-69
2022/05/02 00:12:22;;;;;;;10.02;4.28;;;11.60;99.90;;;;;;5033123;28;20045;-69
2022/05/02 00:15:25;;;;;;;8.52;5.22;;;11.60;99.90;;;;;;5032895;28;20080;-69
2022/05/02 00:18:29;;;;;;;4.78;3.80;;;11.60;99.90;;;;;;5032805;28;20060;-69
2022/05/02 00:21:33;;;;;;;7.07;4.70;;;11.50;99.90;;;;;;5032773;28;20072;-69
2022/05/02 00:24:37;;;;;;;7.35;4.05;;;11.50;99.90;;;;;;5032661;28;20053;-69
2022/05/02 00:27:42;;;;;;;7.30;4.75;;;11.30;99.90;;;;;;5032453;28;20064;-69
2022/05/02 00:30:47;;;;;;;6.90;4.25;;;11.20;99.90;;;;;;5043132;28;20053;-69
2022/05/02 00:33:51;;;;;;;8.63;5.07;;;11.10;99.90;;;;;;5032616;28;20048;-70
2022/05/02 00:36:55;;;;;;;6.45;4.90;;;11.00;99.90;;;;;;5032291;28;20052;-70
2022/05/02 00:39:59;;;;;;;6.95;5.20;;;11.00;99.90;;;;;;5032584;28;20053;-69
2022/05/02 00:43:04;;;;;;;8.32;5.05;;;11.00;99.90;;;;;;5031737;28;20060;-70
2022/05/02 00:46:18;;;;;;;9.30;5.22;;;10.90;99.90;;;;;;5031862;28;20383;-69
2022/05/02 00:49:22;;;;;;;9.02;5.40;;;11.00;99.90;;;;;;5032347;28;20040;-69
2022/05/02 00:52:26;;;;;;;9.18;5.38;;;11.00;99.90;;;;;;5032014;28;20048;-69
2022/05/02 00:55:31;;;;;;;7.05;5.40;;;10.90;99.90;;;;;;5032020;28;20135;-69
2022/05/02 00:58:36;;;;;;;7.00;4.93;;;11.00;99.90;;;;;;5032118;28;20052;-69
2022/05/02 01:01:41;;;;;;;5.05;3.92;;;11.00;99.90;;;;;;5031518;28;20044;-69
2022/05/02 01:04:44;;;;;;;7.45;4.30;;;11.10;99.90;;;;;;5031857;28;20048;-70
2022/05/02 01:07:49;;;;;;;9.55;4.10;;;11.10;99.90;;;;;;5031281;28;20503;-69
2022/05/02 01:10:54;;;;;;;6.78;4.50;;;11.00;99.90;;;;;;5031988;28;20049;-69
2022/05/02 01:13:58;;;;;;;8.45;5.00;;;11.10;99.90;;;;;;5031343;28;20049;-69
2022/05/02 01:17:03;;;;;;;6.75;5.00;;;10.80;99.90;;;;;;5030942;28;20424;-69
2022/05/02 01:20:09;;;;;;;6.63;4.90;;;10.70;99.90;;;;;;5031586;28;20052;-69
2022/05/02 01:23:13;;;;;;;11.95;5.90;;;10.60;99.90;;;;;;5031504;28;20052;-69
2022/05/02 01:26:18;;;;;;;7.95;4.88;;;10.50;99.90;;;;;;5031109;28;20056;-69
2022/05/02 01:29:22;;;;;;;6.68;4.93;;;10.40;99.90;;;;;;5031366;28;20056;-69
2022/05/02 01:32:26;;;;;;;7.65;5.32;;;10.40;99.90;;;;;;5031586;28;20044;-69
2022/05/02 01:35:30;;;;;;;11.95;4.88;;;10.30;99.90;;;;;;5030823;28;20044;-69
2022/05/02 01:38:35;;;;;;;7.65;4.80;;;10.20;99.90;;;;;;5031518;28;20060;-69
2022/05/02 01:41:39;;;;;;;6.38;4.38;;;10.10;99.90;;;;;;5031151;28;20053;-69
2022/05/02 01:44:43;;;;;;;9.00;5.60;;;10.00;99.90;;;;;;5030756;28;20415;-70
2022/05/02 01:47:47;;;;;;;10.07;5.05;;;10.00;99.90;;;;;;5030302;28;20045;-69
2022/05/02 01:50:52;;;;;;;5.30;4.38;;;9.90;99.90;;;;;;5030781;28;20037;-69
2022/05/02 01:53:55;;;;;;;7.88;4.63;;;9.90;99.90;;;;;;5031266;28;20037;-69
2022/05/02 01:56:59;;;;;;;11.27;5.07;;;9.90;99.90;;;;;;5030459;28;20046;-69
2022/05/02 02:00:04;;;;;;;7.30;5.13;;;9.90;99.90;;;;;;5031046;28;20408;-69
2022/05/02 02:03:19;;;;;;;6.00;4.95;;;9.90;99.90;;;;;;5031047;28;20030;-69
2022/05/02 02:06:22;;;;;;;8.23;4.65;;;9.80;99.90;;;;;;5030400;28;20485;-69
2022/05/02 02:09:26;;;;;;;7.88;5.43;;;9.80;99.90;;;;;;5030817;28;20049;-69
2022/05/02 02:12:30;;;;;;;10.75;5.95;;;9.60;99.90;;;;;;5030681;28;20038;-69
2022/05/02 02:15:34;;;;;;;8.80;6.00;;;9.50;99.90;;;;;;5030620;28;20052;-69
2022/05/02 02:18:38;;;;;;;7.95;6.03;;;9.40;99.90;;;;;;5040853;28;20041;-69
2022/05/02 02:21:43;;;;;;;8.30;5.40;;;9.30;99.90;;;;;;5030745;28;20042;-69
2022/05/02 02:24:48;;;;;;;9.95;5.22;;;9.30;99.90;;;;;;5030249;28;20049;-69
2022/05/02 02:27:53;;;;;;;8.35;5.95;;;9.30;99.90;;;;;;5029773;28;20045;-69
2022/05/02 02:30:57;;;;;;;11.52;7.40;;;9.20;99.90;;;;;;5030645;28;20037;-69
2022/05/02 02:34:01;;;;;;;9.48;6.22;;;9.20;99.90;;;;;;5030169;28;20495;-69
2022/05/02 02:37:06;;;;;;;9.68;6.10;;;9.20;99.90;;;;;;5030170;28;20358;-69
2022/05/02 02:40:10;;;;;;;7.80;5.97;;;9.20;99.90;;;;;;5030421;28;20049;-69
2022/05/02 02:43:15;;;;;;;10.40;6.25;;;9.20;99.90;;;;;;5030362;28;20476;-69
2022/05/02 02:46:19;;;;;;;9.73;5.80;;;9.20;99.90;;;;;;5029716;28;20507;-69
2022/05/02 02:49:23;;;;;;;12.10;6.20;;;9.10;99.90;;;;;;5030514;28;20045;-69
2022/05/02 02:52:27;;;;;;;10.13;5.55;;;9.20;99.90;;;;;;5030017;28;20052;-69
2022/05/02 02:55:31;;;;;;;9.45;6.30;;;9.10;99.90;;;;;;5029910;28;20044;-69
2022/05/02 02:58:35;;;;;;;8.77;6.70;;;9.20;99.90;;;;;;5030009;28;20046;-69
2022/05/02 03:01:40;;;;;;;7.38;6.07;;;9.10;99.90;;;;;;5030553;28;20042;-69
2022/05/02 03:08:07;;;;;;;9.45;6.72;;;9.10;99.90;;;;;;5033025;28;20042;-69
2022/05/02 03:11:11;;;;;;;12.77;6.85;;;9.10;99.90;;;;;;5033846;28;20037;-69
2022/05/02 03:14:15;;;;;;;12.20;6.07;;;9.10;99.90;;;;;;5034006;28;20045;-69
2022/05/02 03:17:19;;;;;;;10.60;6.13;;;9.00;99.90;;;;;;5033784;28;20113;-69
2022/05/02 03:20:23;;;;;;;10.70;6.22;;;9.00;99.90;;;;;;5033882;28;20047;-69
2022/05/02 03:23:26;;;;;;;14.98;6.35;;;8.90;99.90;;;;;;5034084;28;20060;-69
2022/05/02 03:26:30;;;;;;;8.93;6.35;;;8.90;99.90;;;;;;5033510;28;20045;-69
2022/05/02 03:29:36;;;;;;;10.02;6.80;;;8.90;99.90;;;;;;5033793;28;20464;-69
2022/05/02 03:32:40;;;;;;;9.70;6.40;;;8.90;99.90;;;;;;5032789;28;20416;-69
2022/05/02 03:35:44;;;;;;;9.70;5.90;;;8.90;99.90;;;;;;5033465;28;20041;-69
2022/05/02 03:38:48;;;;;;;8.15;6.20;;;8.90;99.90;;;;;;5033491;28;20041;-69
2022/05/02 03:41:52;;;;;;;9.75;5.78;;;8.90;99.90;;;;;;5033795;28;20038;-69
2022/05/02 03:44:57;;;;;;;9.77;6.68;;;8.90;99.90;;;;;;5033170;28;20393;-69
2022/05/02 03:48:01;;;;;;;8.10;6.25;;;9.00;99.90;;;;;;5032723;28;20045;-69
2022/05/02 03:51:05;;;;;;;8.18;6.20;;;9.00;99.90;;;;;;5033223;28;20037;-69
2022/05/02 03:54:09;;;;;;;10.15;6.30;;;9.00;99.90;;;;;;5033094;28;20037;-69
2022/05/02 03:57:13;;;;;;;10.40;6.60;;;9.00;99.90;;;;;;5032921;28;20048;-69
2022/05/02 04:00:17;;;;;;;11.75;6.90;;;8.80;99.90;;;;;;5032999;28;20044;-69
2022/05/02 04:03:21;;;;;;;10.32;6.38;;;8.70;99.90;;;;;;5033000;28;20048;-69
2022/05/02 04:06:25;;;;;;;11.63;6.85;;;8.60;99.90;;;;;;5032450;28;20045;-69
2022/05/02 04:09:29;;;;;;;9.95;6.80;;;8.40;99.90;;;;;;5032292;28;20056;-69
2022/05/02 04:12:40;;;;;;;9.30;6.60;;;8.40;99.90;;;;;;5032943;28;20472;-69
2022/05/02 04:15:44;;;;;;;10.77;7.13;;;8.30;99.90;;;;;;5032685;28;20192;-69
2022/05/02 04:18:48;;;;;;;15.68;8.63;;;8.30;99.90;;;;;;5031601;28;20396;-69
2022/05/02 04:21:53;;;;;;;10.05;6.60;;;8.30;99.90;;;;;;5032776;28;20053;-69
2022/05/02 04:24:57;;;;;;;11.30;6.68;;;8.30;99.90;;;;;;5032397;28;20048;-69
2022/05/02 04:28:01;;;;;;;11.95;6.80;;;8.30;99.90;;;;;;5032409;28;20052;-68
2022/05/02 04:31:05;;;;;;;12.35;6.43;;;8.40;99.90;;;;;;5032797;28;20033;-69
2022/05/02 04:34:09;;;;;;;11.40;7.20;;;8.40;99.90;;;;;;5032471;28;20040;-69
2022/05/02 04:37:13;;;;;;;13.02;6.88;;;8.50;99.90;;;;;;5032218;28;20400;-69
2022/05/02 04:40:17;;;;;;;9.63;7.40;;;8.50;99.90;;;;;;5032025;28;20495;-69
2022/05/02 04:43:21;;;;;;;11.75;7.15;;;8.60;99.90;;;;;;5032303;28;20361;-69
2022/05/02 04:46:26;;;;;;;11.13;7.68;;;8.70;99.90;;;;;;5031929;28;20041;-69
2022/05/02 04:49:30;;;;;;;9.60;6.88;;;8.80;99.90;;;;;;5031778;28;20044;-68
2022/05/02 04:52:34;;;;;;;10.98;7.03;;;8.90;99.90;;;;;;5032146;28;20045;-68
2022/05/02 04:55:39;;;;;;;12.70;7.22;;;9.00;99.90;;;;;;5032082;28;20049;-69
2022/05/02 04:58:42;;;;;;;12.88;7.22;;;9.10;99.90;;;;;;5032182;28;20044;-69
2022/05/02 05:01:47;;;;;;;8.35;6.68;;;9.20;99.90;;;;;;5031117;28;20044;-69
2022/05/02 05:04:51;;;;;;;14.30;7.18;;;9.90;99.90;;;;;;5037778;28;20041;-69
2022/05/02 05:07:55;;;;;;;8.00;6.00;;;11.90;99.90;;;;;;5030920;28;20044;-69
2022/05/02 05:11:13;;;;;;;11.02;5.68;;;14.00;99.90;;;;;;5031651;28;20392;-69
2022/05/02 05:18:41;;;;;;;8.77;4.43;;;17.00;99.90;;;;;;5031049;28;20052;-69
2022/05/02 05:21:58;;;;;;;7.13;4.20;;;18.20;99.90;;;;;;5031375;28;20056;-69
2022/05/02 05:25:10;;;;;;;7.50;4.80;;;18.60;99.90;;;;;;5050653;28;20499;-69
2022/05/02 05:28:35;;;;;;;15.38;5.00;;;17.90;99.90;;;;;;5036644;28;20065;-69
2022/05/02 05:31:42;;;;;;;9.18;4.93;;;17.10;99.90;;;;;;5031356;28;20048;-69
2022/05/02 05:34:49;;;;;;;9.77;4.97;;;17.60;99.90;;;;;;5031118;28;20052;-69
2022/05/02 05:38:05;;;;;;;7.35;4.93;;;18.00;99.90;;;;;;5030993;28;20052;-69
2022/05/02 05:41:35;;;;;;;6.15;5.07;;;17.70;99.90;;;;;;5030882;28;20419;-69
2022/05/02 05:44:57;;;;;;;8.50;4.68;;;18.20;99.90;;;;;;5031086;28;20052;-69
2022/05/02 05:48:47;;;;;;;7.13;4.65;;;17.70;99.90;;;;;;5030549;28;20049;-69
2022/05/02 05:52:00;;;;;;;7.25;4.80;;;17.80;99.90;;;;;;5018702;28;20056;-69
2022/05/02 05:55:06;;;;;;;6.57;5.20;;;17.90;99.90;;;;;;5030739;28;20048;-69
2022/05/02 05:58:31;;;;;;;5.90;4.78;;;18.70;99.90;;;;;;5030486;28;20048;-69
2022/05/02 06:01:59;;;;;;;7.85;4.68;;;19.10;99.90;;;;;;5030871;28;20052;-69
2022/05/02 06:05:04;;;;;;;10.05;5.30;;;17.30;99.90;;;;;;5030655;28;20052;-70
2022/05/02 06:08:18;;;;;;;5.53;4.88;;;18.80;99.90;;;;;;5030192;28;20040;-70
2022/05/02 06:11:25;;;;;;;8.07;4.53;;;19.60;99.90;;;;;;5030397;28;20041;-70
2022/05/02 06:18:27;;;;;;;6.30;4.88;;;20.00;99.90;;;;;;5030569;28;20372;-69
2022/05/02 06:21:30;;;;;;;6.28;4.93;;;19.90;99.90;;;;;;5045212;28;20064;-69
2022/05/02 06:24:37;;;;;;;8.15;5.53;;;19.40;99.90;;;;;;5048550;28;20055;-70
2022/05/02 06:27:43;;;;;;;7.57;5.55;;;19.80;99.90;;;;;;5046155;28;20063;-69
2022/05/02 06:30:51;;;;;;;8.02;5.63;;;19.30;99.90;;;;;;5049409;28;20052;-69
2022/05/02 06:33:57;;;;;;;8.75;6.00;;;18.40;99.90;;;;;;5042872;28;20486;-69
2022/05/02 06:37:05;;;;;;;9.55;5.88;;;19.10;99.90;;;;;;5047978;28;20044;-69
2022/05/02 06:40:19;;;;;;;8.85;5.72;;;19.10;99.90;;;;;;5045377;28;20048;-70
2022/05/02 06:43:53;;;;;;;5.85;4.90;;;19.90;99.90;;;;;;5054007;28;20048;-69
2022/05/02 06:47:20;;;;;;;10.02;6.10;;;20.00;99.90;;;;;;5045813;28;20052;-69
2022/05/02 06:50:29;;;;;;;10.57;5.65;;;18.70;99.90;;;;;;5040534;28;20052;-70
2022/05/02 06:53:56;;;;;;;7.90;5.07;;;19.10;99.90;;;;;;5048536;28;20063;-70
2022/05/02 06:57:03;;;;;;;11.38;5.65;;;20.80;99.90;;;;;;5048476;28;20108;-70
2022/05/02 07:00:10;;;;;;;8.43;5.75;;;20.90;99.90;;;;;;5049155;28;20059;-70
2022/05/02 07:03:36;;;;;;;7.03;5.32;;;18.70;99.90;;;;;;5043269;28;20140;-70
2022/05/02 07:07:19;;;;;;;6.30;4.78;;;19.70;99.90;;;;;;5009502;28;20048;-69
2022/05/02 07:10:29;;;;;;;6.38;4.50;;;18.70;99.90;;;;;;5044703;28;21681;-70
2022/05/02 07:13:44;;;;;;;6.25;4.20;;;20.00;99.90;;;;;;5054413;28;20048;-71
2022/05/02 07:16:56;;;;;;;4.97;4.13;;;20.60;99.90;;;;;;5051036;28;20502;-71
2022/05/02 07:20:09;;;;;;;6.97;4.35;;;22.10;99.80;;;;;;5049378;28;20040;-71
2022/05/02 07:23:28;;;;;;;8.27;3.67;;;21.60;98.70;;;;;;5050773;28;20494;-71
2022/05/02 07:26:36;;;;;;;8.48;4.75;;;21.20;99.90;;;;;;5050619;28;20044;-70
2022/05/02 07:29:42;;;;;;;10.82;6.32;;;22.50;99.10;;;;;;5049900;28;20051;-69
2022/05/02 07:32:46;;;;;;;4.82;4.30;;;24.30;96.30;;;;;;5050725;28;20498;-70
2022/05/02 07:35:50;;;;;;;7.03;4.40;;;24.00;95.60;;;;;;5052597;28;20049;-71
2022/05/02 07:39:05;;;;;;;7.07;4.03;;;25.40;93.50;;;;;;5051754;28;20044;-71
2022/05/02 07:42:12;;;;;;;4.80;3.80;;;25.60;93.60;;;;;;5051260;28;20040;-71
2022/05/02 07:45:18;;;;;;;5.53;4.15;;;24.20;93.40;;;;;;5047632;28;20048;-68
2022/05/02 07:48:23;;;;;;;7.25;3.60;;;26.30;92.00;;;;;;5049206;28;20044;-70
2022/05/02 07:51:29;;;;;;;9.15;3.80;;;26.50;90.80;;;;;;5052007;28;20036;-70
2022/05/02 07:54:38;;;;;;;4.45;3.10;;;27.60;90.00;;;;;;5047290;28;20048;-70
2022/05/02 07:57:42;;;;;;;5.22;3.47;;;28.10;86.10;;;;;;5048696;28;20048;-69
2022/05/02 08:00:46;;;;;;;4.10;3.10;;;28.30;83.30;;;;;;5051697;28;20593;-70
2022/05/02 08:03:52;;;;;;;3.72;2.92;;;28.60;83.50;;;;;;5049229;28;21651;-70
2022/05/02 08:07:18;;;;;;;6.10;3.63;;;29.60;81.40;;;;;;5049715;28;20518;-70
2022/05/02 08:10:21;;;;;;;4.28;2.83;;;26.70;79.60;;;;;;5046641;28;20407;-71
2022/05/02 08:14:00;;;;;;;5.25;3.20;;;28.50;79.80;;;;;;5040135;28;20037;-71
2022/05/02 08:17:20;;;;;;;6.60;3.30;;;27.70;79.40;;;;;;5043822;28;20040;-70
2022/05/02 08:20:27;;;;;;;3.65;2.80;;;28.30;80.50;;;;;;5040290;28;20048;-71
2022/05/02 08:27:22;;;;;;;4.07;3.20;;;31.50;75.20;;;;;;5040522;28;20045;-71
2022/05/02 08:30:26;;;;;;;9.20;4.50;;;28.50;76.00;;;;;;5041719;28;20380;-72
2022/05/02 08:33:32;;;;;;;3.45;3.13;;;27.00;77.20;;;;;;5044987;28;20056;-71
2022/05/02 08:37:15;;;;;;;5.72;2.80;;;27.80;75.20;;;;;;5048508;28;20395;-70
2022/05/02 08:40:25;;;;;;;5.82;3.08;;;28.60;75.00;;;;;;4991524;28;20040;-71
2022/05/02 08:44:26;;;;;;;3.80;2.72;;;26.70;74.70;;;;;;5046816;28;20490;-71
2022/05/02 08:48:08;;;;;;;4.82;3.25;;;28.90;74.80;;;;;;4978310;28;20628;-71
2022/05/02 08:51:50;;;;;;;4.00;2.97;;;30.10;71.10;;;;;;5046820;28;20052;-70
2022/05/02 08:55:21;;;;;;;3.50;2.58;;;32.00;68.30;;;;;;5046106;28;20044;-71
2022/05/02 08:58:28;;;;;;;10.32;3.05;;;32.40;67.40;;;;;;5044546;28;20044;-72
2022/05/02 09:02:06;;;;;;;6.63;2.60;;;32.70;66.60;;;;;;5039001;28;20063;-71
2022/05/02 09:05:14;;;;;;;5.95;2.58;;;33.70;64.20;;;;;;5040897;28;20040;-71
2022/05/02 09:08:46;;;;;;;4.75;2.55;;;34.40;63.50;;;;;;5043760;28;20059;-72
2022/05/02 09:12:21;;;;;;;6.30;2.60;;;35.70;61.60;;;;;;5048406;28;20878;-72
2022/05/02 09:15:40;;;;;;;4.50;2.47;;;36.40;61.60;;;;;;5044896;28;20044;-72
2022/05/02 09:18:47;;;;;;;6.07;2.50;;;37.80;59.90;;;;;;5037527;28;20045;-71
2022/05/02 09:22:00;;;;;;;5.47;2.80;;;38.50;58.10;;;;;;5038944;28;20279;-70
2022/05/02 09:25:10;;;;;;;7.32;2.70;;;36.50;57.70;;;;;;5043974;28;20045;-70
2022/05/02 09:28:23;;;;;;;3.67;2.40;;;35.30;57.90;;;;;;5042761;28;20047;-71
2022/05/02 09:31:55;;;;;;;3.75;2.50;;;34.40;59.30;;;;;;5050402;28;20060;-70
2022/05/02 09:35:04;;;;;;;9.63;2.30;;;35.30;58.30;;;;;;5045103;28;20040;-71
2022/05/02 09:38:25;;;;;;;4.03;2.75;;;37.60;57.80;;;;;;5043638;28;20064;-72
2022/05/02 09:41:55;;;;;;;7.57;2.60;;;37.40;56.70;;;;;;5037210;28;20486;-72
2022/05/02 09:52:25;;;;;;;4.20;2.58;;;40.60;56.10;;;;;;5048368;28;20032;-71
2022/05/02 09:59:24;;;;;;;3.60;2.60;;;41.70;53.90;;;;;;5027241;28;20057;-72
2022/05/02 10:02:34;;;;;;;3.45;2.50;;;40.50;53.90;;;;;;5044141;28;20040;-71
2022/05/02 10:06:09;;;;;;;9.98;3.10;;;37.30;54.10;;;;;;5037381;28;20618;-71
2022/05/02 10:09:30;;;;;;;5.60;2.90;;;35.10;58.00;;;;;;5022690;28;20048;-72
2022/05/02 10:12:53;;;;;;;7.95;3.10;;;33.90;59.40;;;;;;5036740;28;20502;-70
2022/05/02 10:16:24;;;;;;;5.03;3.28;;;32.00;60.50;;;;;;5045560;28;20494;-73
2022/05/02 10:19:44;;;;;;;6.65;3.95;;;30.10;62.70;;;;;;5041785;28;20487;-70
2022/05/02 10:23:06;;;;;;;5.20;3.85;;;28.60;64.20;;;;;;5043684;28;20044;-71
2022/05/02 10:26:16;;;;;;;6.25;4.05;;;27.40;66.20;;;;;;5041657;28;20041;-71
2022/05/02 10:30:08;;;;;;;5.00;3.60;;;26.50;67.70;;;;;;5044899;28;20044;-71
2022/05/02 10:33:15;;;;;;;6.90;3.45;;;25.70;69.60;;;;;;5034886;28;20052;-72
2022/05/02 10:36:33;;;;;;;5.13;3.95;;;24.90;71.40;;;;;;5038132;28;20040;-70
2022/05/02 10:39:48;;;;;;;7.20;3.97;;;24.50;72.30;;;;;;5043050;28;20044;-73
2022/05/02 10:42:55;;;;;;;6.65;4.38;;;24.50;70.90;;;;;;5039848;28;20040;-70
2022/05/02 10:46:01;;;;;;;6.65;4.38;;;24.40;71.60;;;;;;5041652;28;20048;-71
2022/05/02 10:49:35;;;;;;;6.07;4.60;;;24.50;72.20;;;;;;5046116;28;20083;-70
2022/05/02 10:52:59;;;;;;;7.25;5.10;;;24.20;75.80;;;;;;5028997;28;20376;-69
2022/05/02 10:56:16;;;;;;;7.97;4.75;;;23.90;74.40;;;;;;5037843;28;20040;-69
2022/05/02 10:59:23;;;;;;;4.93;4.30;;;24.10;74.70;;;;;;5030136;28;20052;-70
2022/05/02 11:02:53;;;;;;;8.90;4.60;;;24.30;75.30;;;;;;5044722;28;20052;-71
2022/05/02 11:06:08;;;;;;;9.07;5.50;;;23.70;75.60;;;;;;5049211;28;20044;-70
2022/05/02 11:09:29;;;;;;;6.90;4.85;;;23.50;77.80;;;;;;5040515;28;20044;-69
2022/05/02 11:13:01;;;;;;;7.18;4.70;;;23.30;78.30;;;;;;5044257;28;20404;-72
2022/05/02 11:16:17;;;;;;;7.97;4.20;;;22.80;77.30;;;;;;5046175;28;20392;-72
2022/05/02 11:23:29;;;;;;;4.53;3.92;;;23.70;75.90;;;;;;5036116;28;20610;-70
2022/05/02 11:26:37;;;;;;;6.93;4.40;;;23.60;73.60;;;;;;5023829;28;20052;-73
2022/05/02 11:30:08;;;;;;;6.00;3.90;;;22.90;73.00;;;;;;5046584;28;20490;-70
2022/05/02 11:33:42;;;;;;;5.43;3.50;;;22.50;75.30;;;;;;5048239;28;20044;-70
2022/05/02 11:36:52;;;;;;;4.90;3.30;;;22.50;74.90;;;;;;5045306;28;20036;-70
2022/05/02 11:40:01;;;;;;;9.18;3.42;;;22.60;72.20;;;;;;5050210;28;20055;-73
2022/05/02 11:43:08;;;;;;;7.57;3.35;;;22.80;73.20;;;;;;5047807;28;20043;-72
2022/05/02 11:46:22;;;;;;;4.40;3.03;;;23.20;70.20;;;;;;5045745;28;20048;-73
2022/05/02 11:49:49;;;;;;;10.15;3.30;;;23.10;68.30;;;;;;5046735;28;20123;-73
2022/05/02 11:52:55;;;;;;;10.55;3.85;;;22.80;69.90;;;;;;5048042;28;20033;-70
2022/05/02 11:56:04;;;;;;;3.88;3.38;;;22.60;70.50;;;;;;5047681;28;20052;-70
2022/05/02 11:59:12;;;;;;;5.95;3.80;;;22.70;70.00;;;;;;5045787;28;20048;-72
2022/05/02 12:02:41;;;;;;;6.90;4.20;;;22.80;70.00;;;;;;5044641;28;20392;-70
2022/05/02 12:05:52;;;;;;;7.82;4.30;;;22.80;69.90;;;;;;5046974;28;20376;-73
2022/05/02 12:08:59;;;;;;;6.65;4.45;;;23.60;72.30;;;;;;5041506;28;20470;-72
2022/05/02 12:12:07;;;;;;;6.95;4.13;;;24.20;72.80;;;;;;5048404;28;20490;-70
2022/05/02 12:15:12;;;;;;;5.28;3.92;;;24.70;72.80;;;;;;5043478;28;20033;-71
2022/05/02 12:18:18;;;;;;;6.63;4.07;;;25.20;70.90;;;;;;5030979;28;20044;-71
2022/05/02 12:21:39;;;;;;;7.35;4.03;;;25.80;68.10;;;;;;5048300;28;20044;-74
2022/05/02 12:24:48;;;;;;;4.50;4.10;;;25.50;68.30;;;;;;5047447;28;20044;-73
2022/05/02 12:27:52;;;;;;;4.50;3.53;;;25.50;69.50;;;;;;5043331;28;20040;-72
2022/05/02 12:30:56;;;;;;;6.75;3.42;;;25.30;69.50;;;;;;5043202;28;20052;-73
2022/05/02 12:34:07;;;;;;;5.00;3.58;;;25.80;71.00;;;;;;5048677;28;20048;-71
2022/05/02 12:37:11;;;;;;;5.10;3.40;;;27.90;70.70;;;;;;5033743;28;20052;-74
2022/05/02 12:40:18;;;;;;;7.00;3.55;;;28.50;68.50;;;;;;5046997;28;20048;-74
2022/05/02 12:43:40;;;;;;;7.50;3.53;;;28.90;67.30;;;;;;5048718;28;21093;-74
2022/05/02 12:46:47;;;;;;;4.82;3.35;;;30.60;65.70;;;;;;5046211;28;20048;-71
2022/05/02 12:50:06;;;;;;;5.18;3.05;;;31.90;62.90;;;;;;5046223;28;20028;-70
2022/05/02 13:00:33;;;;;;;4.68;2.80;;;28.30;64.60;;;;;;5040652;28;20052;-71
2022/05/02 13:03:38;;;;;;;4.22;3.00;;;27.60;64.70;;;;;;5049206;28;20267;-73
2022/05/02 13:06:44;;;;;;;4.05;2.50;;;27.00;64.90;;;;;;5044408;28;20047;-73
2022/05/02 13:09:51;;;;;;;5.80;3.20;;;26.30;65.00;;;;;;5042755;28;20047;-71
2022/05/02 13:13:03;;;;;;;4.80;2.90;;;26.30;65.70;;;;;;5042708;28;20040;-72
2022/05/02 13:16:15;;;;;;;5.20;3.38;;;26.30;66.10;;;;;;5026735;28;20048;-74
2022/05/02 13:19:33;;;;;;;7.95;3.40;;;26.10;67.30;;;;;;5035476;28;20535;-73
2022/05/02 13:22:59;;;;;;;4.93;3.55;;;25.60;67.50;;;;;;5047482;28;20036;-73
2022/05/02 13:26:15;;;;;;;10.27;3.28;;;25.40;68.80;;;;;;5040276;28;20778;-70
2022/05/02 13:29:49;;;;;;;5.00;3.45;;;25.60;69.80;;;;;;5044163;28;20508;-73
2022/05/02 13:33:08;;;;;;;11.13;4.10;;;26.00;69.00;;;;;;5049119;28;20491;-71
2022/05/02 13:36:15;;;;;;;4.50;3.50;;;25.90;69.20;;;;;;5039257;28;20380;-70
2022/05/02 13:39:48;;;;;;;8.48;3.40;;;25.90;68.60;;;;;;5016247;28;20044;-70
2022/05/02 13:43:02;;;;;;;4.20;3.40;;;25.60;69.80;;;;;;5046355;28;20389;-73
2022/05/02 13:46:48;;;;;;;4.65;3.00;;;25.60;70.90;;;;;;5027079;28;20048;-70
2022/05/02 13:50:05;;;;;;;5.85;3.00;;;26.60;67.80;;;;;;5046629;28;20052;-71
2022/05/02 13:53:42;;;;;;;6.10;3.70;;;26.70;67.10;;;;;;5043055;28;20041;-72
2022/05/02 13:57:23;;;;;;;6.28;4.75;;;26.00;67.70;;;;;;5037957;28;20052;-72
2022/05/02 14:04:22;;;;;;;8.23;4.50;;;25.10;70.10;;;;;;5042049;28;20040;-71
2022/05/02 14:07:29;;;;;;;8.45;5.95;;;24.70;70.80;;;;;;5041717;28;20430;-71
2022/05/02 14:10:51;;;;;;;5.35;3.85;;;24.30;70.40;;;;;;5043587;28;20052;-73
2022/05/02 14:14:07;;;;;;;5.53;3.50;;;24.00;71.50;;;;;;5044952;28;20040;-72
2022/05/02 14:17:28;;;;;;;7.40;3.20;;;23.90;72.20;;;;;;5037397;28;20044;-72
2022/05/02 14:20:34;;;;;;;5.25;3.28;;;24.30;72.50;;;;;;5042629;28;20068;-70
2022/05/02 14:23:51;;;;;;;5.15;3.15;;;24.30;71.40;;;;;;5044227;28;20479;-72
2022/05/02 14:26:57;;;;;;;4.82;2.88;;;24.00;71.30;;;;;;5044445;28;20430;-70
2022/05/02 14:30:03;;;;;;;4.82;3.22;;;23.90;70.70;;;;;;5044025;28;20108;-72
2022/05/02 14:33:13;;;;;;;5.38;3.42;;;23.80;70.20;;;;;;5044738;28;20036;-70
2022/05/02 14:36:18;;;;;;;9.95;3.80;;;23.70;71.00;;;;;;5039173;28;20040;-74
2022/05/02 14:39:22;;;;;;;15.60;4.60;;;24.10;71.10;;;;;;5042831;28;20486;-73
2022/05/02 14:42:26;;;;;;;4.40;3.38;;;24.80;72.70;;;;;;5042558;28;20048;-72
2022/05/02 14:45:31;;;;;;;8.50;3.53;;;25.30;72.20;;;;;;5040197;28;20052;-72
2022/05/02 14:48:36;;;;;;;9.85;3.50;;;26.00;70.20;;;;;;5040238;28;20056;-71
2022/05/02 14:51:42;;;;;;;5.15;3.17;;;26.20;70.70;;;;;;5040808;28;20052;-73
2022/05/02 14:54:51;;;;;;;8.00;3.60;;;26.30;69.10;;;;;;5037099;28;20036;-71
2022/05/02 14:57:58;;;;;;;3.60;3.03;;;26.40;68.40;;;;;;5030630;28;20040;-73
2022/05/02 15:01:10;;;;;;;6.55;3.53;;;26.30;68.70;;;;;;5046049;28;20388;-72
2022/05/02 15:04:16;;;;;;;;;;;25.90;67.90;;;;;;5043197;28;20059;-73
2022/05/02 15:07:25;;;;;;;4.13;2.70;;;25.80;70.00;;;;;;5048028;28;19909;-73
2022/05/02 15:10:45;;;;;;;5.32;3.22;;;25.60;69.00;;;;;;5051976;28;20048;-72
2022/05/02 15:14:24;;;;;;;7.55;3.13;;;25.60;69.20;;;;;;5053276;28;20040;-73
2022/05/02 15:17:28;;;;;;;5.25;3.20;;;25.50;69.70;;;;;;5052046;28;20869;-74
2022/05/02 15:20:40;;;;;;;4.32;3.38;;;25.50;67.90;;;;;;5040524;28;20056;-74
2022/05/02 15:23:43;;;;;;;7.72;2.78;;;25.30;68.90;;;;;;5053348;28;20048;-73
2022/05/02 15:26:49;;;;;;;4.75;2.72;;;24.90;70.50;;;;;;5050409;28;21737;-73
2022/05/02 15:37:20;;;;;;;5.80;2.75;;;24.10;70.00;;;;;;5033123;28;20483;-72
2022/05/02 15:40:40;;;;;;;4.40;3.08;;;23.90;69.30;;;;;;5043886;28;20060;-72
2022/05/02 15:43:51;;;;;;;4.03;2.72;;;23.80;69.90;;;;;;5052818;28;20048;-73
2022/05/02 15:47:00;;;;;;;4.95;2.88;;;23.70;69.70;;;;;;5053433;28;20052;-72
2022/05/02 15:50:05;;;;;;;4.82;2.85;;;23.60;71.50;;;;;;5034151;28;20052;-72
2022/05/02 15:53:21;;;;;;;7.55;3.08;;;23.50;71.10;;;;;;5041634;28;20039;-72
2022/05/02 15:56:25;;;;;;;5.68;2.90;;;23.20;71.70;;;;;;5052964;28;20040;-72
2022/05/02 15:59:42;;;;;;;3.40;2.60;;;23.40;73.70;;;;;;5054296;28;20052;-73
2022/05/02 16:03:06;;;;;;;3.35;2.25;;;23.40;71.30;;;;;;5052975;28;20649;-72
2022/05/02 16:06:20;;;;;;;5.85;3.00;;;23.20;71.40;;;;;;5048491;28;20056;-72
2022/05/02 16:12:50;;;;;;;6.15;2.70;;;22.80;72.10;;;;;;5051852;28;20558;-72
2022/05/02 16:15:54;;;;;;;3.97;2.45;;;22.90;71.50;;;;;;5052074;28;20036;-72
2022/05/02 16:18:59;;;;;;;3.85;3.00;;;22.90;71.70;;;;;;5050683;28;20043;-74
2022/05/02 16:22:03;;;;;;;6.80;3.38;;;22.90;73.00;;;;;;5052422;28;20051;-72
2022/05/02 16:25:13;;;;;;;7.03;3.00;;;22.50;75.50;;;;;;5052679;28;20375;-72
2022/05/02 16:28:20;;;;;;;4.82;3.30;;;22.20;76.30;;;;;;5049833;28;20383;-73
2022/05/02 16:31:24;;;;;;;7.55;3.33;;;22.10;76.50;;;;;;5037191;28;20040;-72
2022/05/02 16:34:47;;;;;;;5.63;3.25;;;22.20;77.60;;;;;;5046512;28;20383;-72
2022/05/02 16:37:51;;;;;;;;;;;22.40;77.60;;;;;;5041057;28;20033;-73
2022/05/02 16:40:55;;;;;;;5.80;3.60;;;22.40;78.60;;;;;;5040098;28;20006;-72
2022/05/02 16:44:01;;;;;;;6.45;3.30;;;22.50;79.10;;;;;;5051999;28;20054;-75
2022/05/02 16:47:05;;;;;;;6.90;3.05;;;21.70;75.10;;;;;;5051845;28;20060;-72
2022/05/02 16:50:14;;;;;;;12.90;3.65;;;21.60;76.70;;;;;;5052184;28;20051;-72
2022/05/02 16:53:21;;;;;;;5.55;3.08;;;21.70;77.30;;;;;;5052377;28;20052;-72
2022/05/02 16:56:26;;;;;;;5.18;2.92;;;21.60;78.00;;;;;;5049416;28;20040;-73
2022/05/02 16:59:32;;;;;;;5.25;3.35;;;21.10;78.70;;;;;;5050061;28;20427;-71
2022/05/02 17:02:38;;;;;;;7.53;3.08;;;20.50;80.20;;;;;;5046369;28;20111;-72
2022/05/02 17:05:44;;;;;;;8.02;3.50;;;19.80;81.50;;;;;;5050749;28;20040;-72
2022/05/02 17:08:49;;;;;;;4.35;3.17;;;19.50;83.90;;;;;;5046395;28;20048;-71
2022/05/02 17:11:53;;;;;;;5.32;3.25;;;19.40;83.40;;;;;;5047969;28;20523;-72
2022/05/02 17:14:58;;;;;;;5.93;3.30;;;19.10;83.50;;;;;;5049303;28;20502;-72
2022/05/02 17:18:05;;;;;;;4.43;3.63;;;19.00;84.40;;;;;;5051075;28;20212;-72
2022/05/02 17:21:15;;;;;;;11.45;3.28;;;19.00;85.10;;;;;;5051212;28;20056;-72
2022/05/02 17:24:22;;;;;;;6.53;3.65;;;18.90;84.90;;;;;;5051316;28;20048;-72
2022/05/02 17:27:35;;;;;;;5.88;3.33;;;18.80;85.20;;;;;;5050722;28;20060;-73